Time;durP1;ratioP1;P1;durP2;ratioP2;P2;SDS_P1;SDS_P2;PMS_P1;PMS_P2;Temp;Humidity;BMP_temperature;BMP_pressure;BME280_temperature;BME280_humidity;BME280_pressure;Samples;Min_cycle;Max_cycle;Signal;HPM_P1;HPM_P2
2022/01/01 00:00:39;;;;;;;;;;;13.00;99.90;;;;;;4970934;28;20225;-72
2022/01/01 00:03:06;;;;;;;;;;;13.00;99.90;;;;;;4970948;28;20075;-72
2022/01/01 00:05:33;;;;;;;;;;;13.00;99.90;;;;;;4971119;28;21146;-72
2022/01/01 00:08:02;;;;;;;;;;;13.00;99.90;;;;;;4985845;28;20059;-71
2022/01/01 00:10:31;;;;;;;;;;;13.00;99.90;;;;;;4986908;28;20069;-72
2022/01/01 00:12:58;;;;;;;;;;;13.00;99.90;;;;;;4986968;28;21251;-71
2022/01/01 00:15:25;;;;;;;;;;;13.00;99.90;;;;;;4971063;28;20060;-72
2022/01/01 00:17:52;;;;;;;;;;;13.00;99.90;;;;;;4969277;28;20428;-71
2022/01/01 00:20:20;;;;;;;;;;;13.00;99.90;;;;;;4971201;28;20142;-72
2022/01/01 00:22:47;;;;;;;;;;;13.00;99.90;;;;;;4970344;28;20088;-72
2022/01/01 00:25:14;;;;;;;;;;;13.00;99.90;;;;;;4970570;28;21035;-71
2022/01/01 00:27:43;;;;;;;;;;;13.00;99.90;;;;;;4970442;28;21118;-71
2022/01/01 00:30:11;;;;;;;;;;;13.00;99.90;;;;;;4986868;28;20070;-72
2022/01/01 00:32:39;;;;;;;;;;;13.00;99.90;;;;;;4986802;28;20153;-72
2022/01/01 00:35:06;;;;;;;;;;;12.90;99.90;;;;;;4986456;28;21235;-71
2022/01/01 00:37:33;;;;;;;;;;;13.00;99.90;;;;;;4986253;28;21176;-72
2022/01/01 00:40:01;;;;;;;;;;;13.00;99.90;;;;;;4969998;28;21121;-71
2022/01/01 00:42:28;;;;;;;;;;;13.00;99.90;;;;;;4986248;28;20082;-72
2022/01/01 00:44:56;;;;;;;;;;;13.00;99.90;;;;;;4969781;28;20060;-72
2022/01/01 00:47:24;;;;;;;;;;;13.00;99.90;;;;;;4986138;28;20086;-71
2022/01/01 00:49:51;;;;;;;;;;;13.00;99.90;;;;;;4970081;28;20097;-71
2022/01/01 00:52:18;;;;;;;;;;;13.00;99.90;;;;;;4969951;28;20060;-72
2022/01/01 00:54:45;;;;;;;;;;;13.00;99.90;;;;;;4970404;28;20085;-70
2022/01/01 00:57:12;;;;;;;;;;;13.00;99.90;;;;;;4969803;28;20052;-71
2022/01/01 00:59:39;;;;;;;;;;;13.00;99.90;;;;;;4985202;28;21049;-70
2022/01/01 01:02:08;;;;;;;;;;;13.10;99.90;;;;;;4969028;28;20159;-70
2022/01/01 01:04:35;;;;;;;;;;;13.10;99.90;;;;;;4970021;28;20290;-70
2022/01/01 01:07:02;;;;;;;;;;;13.10;99.90;;;;;;4986132;28;20101;-70
2022/01/01 01:09:29;;;;;;;;;;;13.10;99.90;;;;;;4984760;28;20060;-70
2022/01/01 01:11:57;;;;;;;;;;;13.10;99.90;;;;;;4969817;28;20051;-70
2022/01/01 01:14:27;;;;;;;;;;;13.10;99.90;;;;;;4969476;28;20153;-70
2022/01/01 01:16:55;;;;;;;;;;;13.10;99.90;;;;;;4969904;28;21030;-71
2022/01/01 01:19:23;;;;;;;;;;;13.00;99.90;;;;;;4985678;28;20080;-71
2022/01/01 01:21:52;;;;;;;;;;;13.00;99.90;;;;;;4986139;28;20052;-71
2022/01/01 01:24:21;;;;;;;;;;;13.00;99.90;;;;;;4986053;28;20058;-71
2022/01/01 01:26:50;;;;;;;;;;;13.00;99.90;;;;;;4969828;28;20186;-71
2022/01/01 01:29:17;;;;;;;;;;;13.10;99.90;;;;;;4969804;28;20060;-70
2022/01/01 01:31:45;;;;;;;;;;;13.00;99.90;;;;;;4985672;28;20161;-71
2022/01/01 01:34:12;;;;;;;;;;;13.00;99.90;;;;;;4970073;28;20083;-72
2022/01/01 01:36:41;;;;;;;;;;;13.00;99.90;;;;;;4970124;28;20084;-71
2022/01/01 01:39:08;;;;;;;;;;;13.00;99.90;;;;;;4968750;28;20986;-71
2022/01/01 01:41:35;;;;;;;;;;;13.00;99.90;;;;;;4985903;28;21085;-71
2022/01/01 01:44:04;;;;;;;;;;;13.00;99.90;;;;;;4969600;28;20125;-71
2022/01/01 01:46:31;;;;;;;;;;;13.00;99.90;;;;;;4986081;28;21153;-71
2022/01/01 01:48:58;;;;;;;;;;;13.00;99.90;;;;;;4968305;28;20281;-72
2022/01/01 01:51:25;;;;;;;;;;;13.00;99.90;;;;;;4969247;28;20065;-71
2022/01/01 01:53:54;;;;;;;;;;;13.00;99.90;;;;;;4970853;28;20060;-71
2022/01/01 01:56:21;;;;;;;;;;;13.00;99.90;;;;;;4974331;28;20222;-69
2022/01/01 01:58:49;;;;;;;;;;;13.00;99.90;;;;;;4989690;28;20142;-72
2022/01/01 02:03:54;;;;;;;;;;;13.00;99.90;;;;;;4973788;28;20047;-71
2022/01/01 02:06:22;;;;;;;;;;;13.00;99.90;;;;;;4990159;28;21253;-71
2022/01/01 02:08:52;;;;;;;;;;;12.90;99.90;;;;;;4988189;28;20075;-71
2022/01/01 02:11:22;;;;;;;;;;;12.90;99.90;;;;;;4989720;28;20052;-71
2022/01/01 02:16:49;;;;;;;;;;;12.90;99.90;;;;;;4961126;28;20047;-71
2022/01/01 02:19:16;;;;;;;;;;;12.90;99.90;;;;;;4988483;28;20060;-71
2022/01/01 02:21:45;;;;;;;;;;;12.90;99.90;;;;;;4973025;28;21069;-71
2022/01/01 02:24:12;;;;;;;;;;;12.90;99.90;;;;;;4988808;28;20162;-71
2022/01/01 02:26:39;;;;;;;;;;;12.90;99.90;;;;;;4973395;28;20060;-71
2022/01/01 02:29:06;;;;;;;;;;;12.90;99.90;;;;;;4972432;28;20060;-71
2022/01/01 02:31:34;;;;;;;;;;;12.90;99.90;;;;;;4972406;28;20052;-71
2022/01/01 02:34:05;;;;;;;;;;;12.90;99.90;;;;;;4972610;28;20270;-72
2022/01/01 02:36:33;;;;;;;;;;;12.90;99.90;;;;;;4989219;28;20149;-71
2022/01/01 02:39:02;;;;;;;;;;;12.90;99.90;;;;;;4988632;28;20068;-72
2022/01/01 02:41:30;;;;;;;;;;;12.90;99.90;;;;;;4989266;28;20069;-72
2022/01/01 02:43:57;;;;;;;;;;;12.80;99.90;;;;;;4972405;28;21148;-71
2022/01/01 02:46:24;;;;;;;;;;;12.90;99.90;;;;;;4972803;28;20082;-72
2022/01/01 02:48:51;;;;;;;;;;;12.90;99.90;;;;;;4971509;28;21157;-71
2022/01/01 02:51:18;;;;;;;;;;;12.90;99.90;;;;;;4971970;28;20153;-72
2022/01/01 02:53:46;;;;;;;;;;;12.80;99.90;;;;;;4971990;28;20061;-71
2022/01/01 02:56:14;;;;;;;;;;;12.80;99.90;;;;;;4972296;28;21064;-72
2022/01/01 02:58:42;;;;;;;;;;;12.80;99.90;;;;;;4988329;28;20077;-71
2022/01/01 03:01:09;;;;;;;;;;;12.80;99.90;;;;;;4988728;28;20061;-70
2022/01/01 03:03:37;;;;;;;;;;;12.90;99.90;;;;;;4987811;28;21151;-71
2022/01/01 03:06:04;;;;;;;;;;;12.80;99.90;;;;;;4971344;28;21127;-71
2022/01/01 03:08:32;;;;;;;;;;;12.80;99.90;;;;;;4988471;28;20052;-71
2022/01/01 03:11:02;;;;;;;;;;;12.80;99.90;;;;;;4972095;28;20067;-71
2022/01/01 03:13:30;;;;;;;;;;;12.80;99.90;;;;;;4972163;28;20091;-71
2022/01/01 03:15:58;;;;;;;;;;;12.80;99.90;;;;;;4988550;28;20163;-71
2022/01/01 03:18:25;;;;;;;;;;;12.80;99.90;;;;;;4974141;28;20287;-71
2022/01/01 03:20:52;;;;;;;;;;;12.80;99.90;;;;;;4972132;28;21185;-71
2022/01/01 03:23:19;;;;;;;;;;;12.80;99.90;;;;;;4972179;28;20075;-71
2022/01/01 03:25:46;;;;;;;;;;;12.80;99.90;;;;;;4971995;28;20154;-71
2022/01/01 03:28:13;;;;;;;;;;;12.80;99.90;;;;;;4970872;28;20067;-72
2022/01/01 03:30:42;;;;;;;;;;;12.80;99.90;;;;;;4971814;28;20098;-72
2022/01/01 03:33:09;;;;;;;;;;;12.80;99.90;;;;;;4987838;28;20075;-68
2022/01/01 03:35:36;;;;;;;;;;;12.80;99.90;;;;;;4987788;28;20225;-70
2022/01/01 03:38:03;;;;;;;;;;;12.80;99.90;;;;;;4970814;28;20060;-70
2022/01/01 03:40:30;;;;;;;;;;;12.70;99.90;;;;;;4971615;28;20133;-72
2022/01/01 03:42:58;;;;;;;;;;;12.80;99.90;;;;;;4971847;28;20078;-70
2022/01/01 03:45:25;;;;;;;;;;;12.70;99.90;;;;;;4970360;28;21151;-70
2022/01/01 03:47:53;;;;;;;;;;;12.80;99.90;;;;;;4970200;28;20117;-71
2022/01/01 03:50:21;;;;;;;;;;;12.80;99.90;;;;;;4971562;28;21124;-71
2022/01/01 03:52:48;;;;;;;;;;;12.80;99.90;;;;;;4971311;28;21406;-71
2022/01/01 03:55:16;;;;;;;;;;;12.70;99.90;;;;;;4987498;28;21044;-71
2022/01/01 03:57:43;;;;;;;;;;;12.70;99.90;;;;;;4986855;28;20060;-68
2022/01/01 04:00:11;;;;;;;;;;;12.70;99.90;;;;;;4970566;28;20080;-69
2022/01/01 04:02:41;;;;;;;;;;;12.70;99.90;;;;;;4991276;28;20076;-71
2022/01/01 04:05:10;;;;;;;;;;;12.70;99.90;;;;;;4971245;28;20162;-70
2022/01/01 04:07:37;;;;;;;;;;;12.80;99.90;;;;;;4986989;28;20162;-70
2022/01/01 04:10:05;;;;;;;;;;;12.70;99.90;;;;;;4970500;28;20066;-71
2022/01/01 04:12:32;;;;;;;;;;;12.70;99.90;;;;;;4987527;28;20071;-70
2022/01/01 04:15:01;;;;;;;;;;;12.70;99.90;;;;;;4987104;28;21048;-71
2022/01/01 04:17:28;;;;;;;;;;;12.70;99.90;;;;;;4969850;28;21042;-71
2022/01/01 04:19:55;;;;;;;;;;;12.70;99.90;;;;;;4970806;28;20060;-71
2022/01/01 04:22:24;;;;;;;;;;;12.70;99.90;;;;;;4970288;28;20051;-71
2022/01/01 04:24:51;;;;;;;;;;;12.70;99.90;;;;;;4987614;28;20074;-72
2022/01/01 04:27:18;;;;;;;;;;;12.70;99.90;;;;;;4971382;28;20203;-71
2022/01/01 04:29:45;;;;;;;;;;;12.70;99.90;;;;;;4970750;28;20137;-71
2022/01/01 04:32:14;;;;;;;;;;;12.70;99.90;;;;;;4970994;28;20087;-71
2022/01/01 04:34:41;;;;;;;;;;;12.70;99.90;;;;;;4970790;28;20260;-71
2022/01/01 04:37:12;;;;;;;;;;;12.70;99.90;;;;;;4986544;28;20150;-71
2022/01/01 04:39:40;;;;;;;;;;;12.70;99.90;;;;;;4970103;28;20276;-70
2022/01/01 04:42:08;;;;;;;;;;;12.70;99.90;;;;;;4987279;28;20068;-70
2022/01/01 04:44:35;;;;;;;;;;;12.70;99.90;;;;;;4970598;28;20068;-70
2022/01/01 04:47:02;;;;;;;;;;;12.70;99.90;;;;;;4986608;28;20143;-70
2022/01/01 04:49:29;;;;;;;;;;;12.70;99.90;;;;;;4969888;28;20075;-71
2022/01/01 04:51:56;;;;;;;;;;;12.70;99.90;;;;;;4970653;28;21096;-70
2022/01/01 04:54:23;;;;;;;;;;;12.70;99.90;;;;;;4970049;28;20075;-70
2022/01/01 04:56:52;;;;;;;;;;;12.70;99.90;;;;;;4970151;28;20149;-70
2022/01/01 04:59:19;;;;;;;;;;;12.70;99.90;;;;;;4985810;28;20052;-70
2022/01/01 05:01:46;;;;;;;;;;;12.70;99.90;;;;;;4970181;28;20110;-70
2022/01/01 05:04:13;;;;;;;;;;;12.70;99.90;;;;;;4985913;28;20195;-70
2022/01/01 05:06:41;;;;;;;;;;;12.70;99.90;;;;;;4970120;28;20088;-70
2022/01/01 05:09:09;;;;;;;;;;;12.70;99.90;;;;;;4969149;28;20060;-71
2022/01/01 05:11:36;;;;;;;;;;;12.70;99.90;;;;;;4986667;28;20060;-72
2022/01/01 05:14:05;;;;;;;;;;;12.70;99.90;;;;;;4970216;28;20137;-71
2022/01/01 05:16:32;;;;;;;;;;;12.60;99.90;;;;;;4985936;28;20091;-72
2022/01/01 05:18:59;;;;;;;;;;;12.60;99.90;;;;;;4969228;28;20068;-71
2022/01/01 05:21:27;;;;;;;;;;;12.60;99.90;;;;;;4970127;28;20061;-71
2022/01/01 05:23:54;;;;;;;;;;;12.60;99.90;;;;;;4969579;28;20067;-72
2022/01/01 05:26:22;;;;;;;;;;;12.60;99.90;;;;;;4969763;28;20066;-71
2022/01/01 05:28:49;;;;;;;;;;;12.60;99.90;;;;;;4968173;28;20082;-72
2022/01/01 05:31:19;;;;;;;;;;;12.70;99.90;;;;;;4969279;28;20052;-71
2022/01/01 05:33:46;;;;;;;;;;;12.60;99.90;;;;;;4986261;28;21036;-72
2022/01/01 05:36:13;;;;;;;;;;;12.60;99.90;;;;;;4986393;28;21031;-72
2022/01/01 05:38:41;;;;;;;;;;;12.60;99.90;;;;;;4969038;28;20082;-72
2022/01/01 05:41:08;;;;;;;;;;;12.60;99.90;;;;;;4986036;28;20060;-72
2022/01/01 05:43:35;;;;;;;;;;;12.50;99.90;;;;;;4984534;28;20052;-72
2022/01/01 05:46:02;;;;;;;;;;;12.50;99.90;;;;;;4969943;28;20154;-71
2022/01/01 05:48:31;;;;;;;;;;;12.50;99.90;;;;;;4984984;28;20071;-71
2022/01/01 05:50:58;;;;;;;;;;;12.50;99.90;;;;;;4969320;28;21174;-71
2022/01/01 05:53:25;;;;;;;;;;;12.50;99.90;;;;;;4985834;28;20174;-69
2022/01/01 05:55:52;;;;;;;;;;;12.50;99.90;;;;;;4985250;28;21149;-71
2022/01/01 05:58:20;;;;;;;;;;;12.60;99.90;;;;;;4984973;28;20058;-71
2022/01/01 06:00:47;;;;;;;;;;;12.60;99.90;;;;;;4969053;28;20060;-71
2022/01/01 06:03:15;;;;;;;;;;;12.60;99.90;;;;;;4969564;28;20077;-72
2022/01/01 06:05:43;;;;;;;;;;;12.60;99.90;;;;;;4974434;28;20069;-72
2022/01/01 06:08:10;;;;;;;;;;;12.50;99.90;;;;;;4984051;28;20152;-71
2022/01/01 06:10:38;;;;;;;;;;;12.50;99.90;;;;;;4987215;28;20149;-71
2022/01/01 06:13:06;;;;;;;;;;;12.50;99.90;;;;;;4969533;28;20066;-72
2022/01/01 06:15:33;;;;;;;;;;;12.60;99.90;;;;;;4969783;28;20088;-71
2022/01/01 06:18:00;;;;;;;;;;;12.60;99.90;;;;;;4968281;28;20145;-72
2022/01/01 06:20:27;;;;;;;;;;;12.60;99.90;;;;;;4981697;28;20093;-72
2022/01/01 06:22:56;;;;;;;;;;;12.50;99.90;;;;;;4988158;28;20078;-71
2022/01/01 06:25:23;;;;;;;;;;;12.50;99.90;;;;;;4988327;28;20149;-71
2022/01/01 06:27:50;;;;;;;;;;;12.50;99.90;;;;;;4987761;28;20076;-71
2022/01/01 06:30:17;;;;;;;;;;;12.50;99.90;;;;;;4988573;28;20133;-71
2022/01/01 06:32:45;;;;;;;;;;;12.60;99.90;;;;;;4988913;28;20052;-71
2022/01/01 06:35:12;;;;;;;;;;;12.60;99.90;;;;;;4988532;28;20260;-71
2022/01/01 06:37:40;;;;;;;;;;;12.60;99.90;;;;;;4987627;28;20060;-71
2022/01/01 06:40:09;;;;;;;;;;;12.50;99.90;;;;;;4991026;28;21096;-71
2022/01/01 06:42:37;;;;;;;;;;;12.50;99.90;;;;;;4992677;28;20068;-71
2022/01/01 06:45:04;;;;;;;;;;;12.50;99.90;;;;;;4991801;28;20052;-71
2022/01/01 06:47:31;;;;;;;;;;;12.50;99.90;;;;;;4991781;28;20052;-70
2022/01/01 06:49:58;;;;;;;;;;;12.50;99.90;;;;;;4992131;28;20060;-71
2022/01/01 06:52:25;;;;;;;;;;;12.50;99.90;;;;;;4992380;28;20075;-71
2022/01/01 06:54:52;;;;;;;;;;;12.50;99.90;;;;;;4992327;28;21119;-71
2022/01/01 06:57:21;;;;;;;;;;;12.50;99.90;;;;;;4992050;28;20067;-71
2022/01/01 06:59:48;;;;;;;;;;;12.50;99.90;;;;;;4991470;28;20118;-71
2022/01/01 07:02:15;;;;;;;;;;;12.60;99.90;;;;;;4991785;28;21097;-71
2022/01/01 07:04:42;;;;;;;;;;;12.60;99.90;;;;;;4992030;28;20084;-71
2022/01/01 07:07:09;;;;;;;;;;;12.70;99.90;;;;;;4991665;28;20541;-71
2022/01/01 07:09:37;;;;;;;;;;;12.70;99.90;;;;;;4990634;28;20066;-71
2022/01/01 07:12:04;;;;;;;;;;;12.70;99.90;;;;;;4975706;28;21127;-71
2022/01/01 07:14:33;;;;;;;;;;;12.70;99.90;;;;;;4971221;28;20154;-71
2022/01/01 07:17:00;;;;;;;;;;;12.70;99.90;;;;;;4971625;28;21141;-71
2022/01/01 07:19:27;;;;;;;;;;;12.70;99.90;;;;;;4971394;28;20052;-70
2022/01/01 07:21:55;;;;;;;;;;;12.70;99.90;;;;;;4971765;28;20059;-70
2022/01/01 07:24:23;;;;;;;;;;;12.70;99.90;;;;;;4971578;28;21081;-71
2022/01/01 07:26:50;;;;;;;;;;;12.70;99.90;;;;;;4971905;28;20220;-71
2022/01/01 07:29:17;;;;;;;;;;;12.70;99.90;;;;;;4971316;28;20133;-71
2022/01/01 07:31:46;;;;;;;;;;;12.80;99.90;;;;;;4971903;28;20284;-70
2022/01/01 07:34:13;;;;;;;;;;;12.80;99.90;;;;;;4971672;28;20093;-71
2022/01/01 07:36:40;;;;;;;;;;;12.80;99.90;;;;;;4972061;28;21180;-71
2022/01/01 07:39:09;;;;;;;;;;;12.80;99.90;;;;;;4970820;28;20078;-71
2022/01/01 07:41:37;;;;;;;;;;;12.80;99.90;;;;;;4971296;28;20291;-70
2022/01/01 07:44:06;;;;;;;;;;;12.80;99.90;;;;;;4970982;28;20060;-71
2022/01/01 07:46:33;;;;;;;;;;;12.80;99.90;;;;;;4971354;28;20195;-71
2022/01/01 07:49:02;;;;;;;;;;;12.80;99.90;;;;;;4970135;28;20169;-70
2022/01/01 07:51:29;;;;;;;;;;;12.80;99.90;;;;;;4970609;28;20141;-71
2022/01/01 07:53:56;;;;;;;;;;;12.80;99.90;;;;;;4971372;28;20090;-71
2022/01/01 07:56:23;;;;;;;;;;;12.80;99.90;;;;;;4971232;28;20060;-71
2022/01/01 07:58:50;;;;;;;;;;;12.70;99.90;;;;;;4970776;28;21138;-71
2022/01/01 08:01:17;;;;;;;;;;;12.70;99.90;;;;;;4971881;28;20052;-71
2022/01/01 08:03:47;;;;;;;;;;;12.70;99.90;;;;;;4971281;28;20060;-71
2022/01/01 08:06:15;;;;;;;;;;;12.70;99.90;;;;;;4970750;28;20067;-71
2022/01/01 08:08:42;;;;;;;;;;;12.70;99.90;;;;;;4970509;28;20076;-71
2022/01/01 08:11:09;;;;;;;;;;;12.70;99.90;;;;;;4979715;28;20060;-71
2022/01/01 08:13:36;;;;;;;;;;;12.70;99.90;;;;;;4990716;28;20067;-71
2022/01/01 08:16:04;;;;;;;;;;;12.70;99.90;;;;;;4990958;28;20195;-71
2022/01/01 08:18:31;;;;;;;;;;;12.80;99.90;;;;;;4989708;28;20082;-71
2022/01/01 08:20:58;;;;;;;;;;;12.80;99.90;;;;;;4991972;28;20129;-71
2022/01/01 08:23:27;;;;;;;;;;;12.90;99.90;;;;;;4991310;28;20058;-71
2022/01/01 08:25:56;;;;;;;;;;;12.90;99.90;;;;;;4990434;28;20074;-71
2022/01/01 08:28:23;;;;;;;;;;;12.90;99.90;;;;;;4989177;28;20100;-71
2022/01/01 08:30:50;;;;;;;;;;;13.00;99.90;;;;;;4990221;28;20069;-71
2022/01/01 08:33:17;;;;;;;;;;;13.10;99.90;;;;;;4989668;28;20052;-71
2022/01/01 08:35:44;;;;;;;;;;;13.10;99.90;;;;;;4990848;28;21023;-71
2022/01/01 08:38:13;;;;;;;;;;;13.20;99.90;;;;;;4990681;28;20068;-71
2022/01/01 08:40:42;;;;;;;;;;;13.20;99.90;;;;;;4990388;28;21022;-71
2022/01/01 08:43:09;;;;;;;;;;;13.20;99.90;;;;;;4989079;28;20067;-69
2022/01/01 08:45:37;;;;;;;;;;;13.20;99.90;;;;;;4990035;28;21206;-71
2022/01/01 08:48:05;;;;;;;;;;;13.20;99.90;;;;;;4989621;28;21124;-71
2022/01/01 08:50:32;;;;;;;;;;;13.20;99.90;;;;;;4990054;28;21207;-71
2022/01/01 08:52:59;;;;;;;;;;;13.20;99.90;;;;;;4989747;28;20065;-71
2022/01/01 08:55:26;;;;;;;;;;;13.30;99.90;;;;;;4990177;28;20052;-71
2022/01/01 08:57:55;;;;;;;;;;;13.30;99.90;;;;;;4989347;28;20132;-71
2022/01/01 09:00:22;;;;;;;;;;;13.40;99.90;;;;;;4990262;28;20141;-71
2022/01/01 09:02:49;;;;;;;;;;;13.50;99.90;;;;;;4989187;28;20076;-71
2022/01/01 09:05:17;;;;;;;;;;;13.50;99.90;;;;;;4989699;28;20060;-71
2022/01/01 09:07:44;;;;;;;;;;;13.60;99.90;;;;;;4989040;28;20086;-69
2022/01/01 09:10:11;;;;;;;;;;;13.60;99.90;;;;;;4988783;28;20060;-71
2022/01/01 09:12:38;;;;;;;;;;;13.70;99.90;;;;;;4969776;28;20073;-71
2022/01/01 09:15:07;;;;;;;;;;;13.70;99.90;;;;;;4970371;28;20058;-71
2022/01/01 09:17:34;;;;;;;;;;;13.80;99.90;;;;;;4969102;28;20052;-71
2022/01/01 09:20:02;;;;;;;;;;;13.80;99.90;;;;;;4991526;22;20075;-69
2022/01/01 09:22:30;;;;;;;;;;;13.80;99.90;;;;;;4969026;28;20172;-70
2022/01/01 09:24:58;;;;;;;;;;;13.90;99.90;;;;;;4970064;28;21109;-70
2022/01/01 09:27:25;;;;;;;;;;;14.00;99.90;;;;;;4969769;28;20074;-70
2022/01/01 09:29:52;;;;;;;;;;;14.00;99.90;;;;;;4968258;28;20079;-70
2022/01/01 09:32:21;;;;;;;;;;;14.00;99.90;;;;;;4969281;28;20078;-70
2022/01/01 09:34:48;;;;;;;;;;;14.10;99.90;;;;;;4970038;28;20051;-70
2022/01/01 09:37:15;;;;;;;;;;;14.20;99.90;;;;;;4970209;28;21123;-70
2022/01/01 09:39:42;;;;;;;;;;;14.20;99.90;;;;;;4969255;28;20060;-70
2022/01/01 09:42:11;;;;;;;;;;;14.20;99.90;;;;;;4969864;28;20150;-70
2022/01/01 09:44:38;;;;;;;;;;;14.30;99.90;;;;;;4969204;28;20067;-70
2022/01/01 09:47:05;;;;;;;;;;;14.30;99.90;;;;;;4969045;28;21131;-70
2022/01/01 09:49:34;;;;;;;;;;;14.30;99.90;;;;;;4968584;28;21063;-70
2022/01/01 09:52:01;;;;;;;;;;;14.40;99.90;;;;;;4970146;28;20088;-70
2022/01/01 09:54:30;;;;;;;;;;;14.50;99.90;;;;;;4969790;28;20162;-70
2022/01/01 09:56:58;;;;;;;;;;;14.60;99.90;;;;;;4969740;28;20052;-70
2022/01/01 09:59:25;;;;;;;;;;;14.70;99.90;;;;;;4969348;28;21149;-70
2022/01/01 10:01:52;;;;;;;;;;;14.70;99.90;;;;;;4969527;28;20051;-70
2022/01/01 10:04:19;;;;;;;;;;;14.80;99.90;;;;;;4969411;28;21029;-70
2022/01/01 10:07:02;;;;;;;;;;;14.90;99.90;;;;;;4969812;28;20174;-70
2022/01/01 10:09:34;;;;;;;;;;;14.90;99.90;;;;;;4968072;28;20297;-70
2022/01/01 10:12:01;;;;;;;;;;;14.90;99.90;;;;;;4984203;28;20088;-70
2022/01/01 10:14:38;;;;;;;;;;;14.90;99.90;;;;;;4989883;28;21175;-70
2022/01/01 10:17:13;;;;;;;;;;;14.70;99.90;;;;;;4992791;28;20142;-70
2022/01/01 10:19:41;;;;;;;;;;;14.70;99.90;;;;;;4991344;28;21106;-70
2022/01/01 10:22:12;;;;;;;;;;;14.70;99.90;;;;;;4992454;28;20060;-70
2022/01/01 10:30:06;;;;;;;;;;;15.20;99.90;;;;;;4991479;28;21347;-70
2022/01/01 10:32:34;;;;;;;;;;;15.30;99.90;;;;;;4991874;28;20141;-71
2022/01/01 10:35:01;;;;;;;;;;;15.30;99.90;;;;;;4992543;28;20096;-70
2022/01/01 10:37:30;;;;;;;;;;;15.40;99.90;;;;;;4992551;28;20087;-70
2022/01/01 10:39:58;;;;;;;;;;;15.40;99.90;;;;;;4992878;28;21221;-69
2022/01/01 10:42:25;;;;;;;;;;;15.50;99.90;;;;;;4993080;28;20083;-70
2022/01/01 10:44:53;;;;;;;;;;;15.50;99.90;;;;;;4991834;28;20052;-71
2022/01/01 10:47:27;;;;;;;;;;;15.60;99.90;;;;;;4991938;28;20074;-70
2022/01/01 10:50:14;;;;;;;;;;;15.80;99.90;;;;;;4991503;28;20060;-71
2022/01/01 10:52:45;;;;;;;;;;;15.90;99.90;;;;;;4992076;28;20060;-70
2022/01/01 10:55:13;;;;;;;;;;;16.20;99.90;;;;;;4992254;28;20269;-70
2022/01/01 10:57:42;;;;;;;;;;;16.40;99.90;;;;;;4991510;28;20132;-70
2022/01/01 11:00:11;;;;;;;;;;;17.10;99.90;;;;;;4992301;28;21090;-70
2022/01/01 11:02:39;;;;;;;;;;;17.60;99.90;;;;;;4991958;28;20051;-70
2022/01/01 11:05:06;;;;;;;;;;;17.70;99.90;;;;;;4991795;28;21211;-70
2022/01/01 11:07:34;;;;;;;;;;;18.10;99.90;;;;;;4991705;28;20153;-70
2022/01/01 11:10:01;;;;;;;;;;;18.40;99.90;;;;;;4990476;28;20060;-70
2022/01/01 11:12:30;;;;;;;;;;;18.60;99.90;;;;;;4990936;28;21102;-70
2022/01/01 11:15:01;;;;;;;;;;;19.00;99.90;;;;;;4991722;28;20052;-69
2022/01/01 11:17:28;;;;;;;;;;;19.40;99.90;;;;;;4991550;28;20280;-70
2022/01/01 11:19:56;;;;;;;;;;;19.80;99.90;;;;;;4990805;28;20092;-70
2022/01/01 11:22:23;;;;;;;;;;;19.80;99.90;;;;;;4991677;28;20185;-70
2022/01/01 11:24:50;;;;;;;;;;;20.00;99.90;;;;;;4990167;28;21169;-71
2022/01/01 11:27:18;;;;;;;;;;;20.40;99.90;;;;;;4991696;28;20060;-70
2022/01/01 11:29:50;;;;;;;;;;;21.20;99.90;;;;;;4990821;28;20060;-71
2022/01/01 11:32:20;;;;;;;;;;;22.70;99.90;;;;;;4991809;28;20059;-71
2022/01/01 11:34:49;;;;;;;;;;;24.10;99.90;;;;;;4991087;28;20066;-70
2022/01/01 11:37:16;;;;;;;;;;;24.90;99.90;;;;;;4991012;28;20067;-71
2022/01/01 11:39:44;;;;;;;;;;;25.40;99.90;;;;;;4990681;28;20068;-71
2022/01/01 11:42:11;;;;;;;;;;;26.20;99.90;;;;;;4990940;28;20075;-71
2022/01/01 11:44:41;;;;;;;;;;;26.00;99.90;;;;;;4990382;28;20153;-71
2022/01/01 11:47:16;;;;;;;;;;;26.80;99.90;;;;;;4991484;28;20108;-71
2022/01/01 11:49:43;;;;;;;;;;;26.60;99.90;;;;;;4990713;28;20061;-71
2022/01/01 11:52:10;;;;;;;;;;;27.20;99.90;;;;;;4991223;28;20068;-71
2022/01/01 11:54:39;;;;;;;;;;;28.40;99.90;;;;;;4991415;28;21003;-71
2022/01/01 11:57:10;;;;;;;;;;;28.80;99.90;;;;;;4990879;28;20052;-71
2022/01/01 11:59:41;;;;;;;;;;;28.50;99.90;;;;;;4990206;28;21024;-71
2022/01/01 12:02:30;;;;;;;;;;;28.30;99.90;;;;;;4990283;28;20086;-71
2022/01/01 12:05:07;;;;;;;;;;;28.40;99.90;;;;;;4991272;28;20068;-70
2022/01/01 12:07:42;;;;;;;;;;;28.00;99.90;;;;;;4991355;28;20161;-71
2022/01/01 12:10:14;;;;;;;;;;;28.90;99.90;;;;;;4990047;28;20090;-71
2022/01/01 12:12:43;;;;;;;;;;;29.40;99.90;;;;;;4970710;28;20088;-71
2022/01/01 12:15:11;;;;;;;;;;;28.70;99.90;;;;;;4970521;28;20432;-71
2022/01/01 12:17:42;;;;;;;;;;;28.00;99.90;;;;;;4971005;28;20049;-70
2022/01/01 12:20:10;;;;;;;;;;;28.30;99.90;;;;;;4970620;28;20083;-71
2022/01/01 12:22:38;;;;;;;;;;;28.10;99.90;;;;;;4970875;28;21003;-71
2022/01/01 12:25:08;;;;;;;;;;;27.90;99.90;;;;;;4970226;28;21160;-71
2022/01/01 12:27:40;;;;;;;;;;;27.60;99.90;;;;;;4971318;28;20198;-71
2022/01/01 12:30:08;;;;;;;;;;;27.50;99.90;;;;;;4969575;28;20051;-71
2022/01/01 12:32:39;;;;;;;;;;;27.30;99.90;;;;;;4970014;28;20061;-72
2022/01/01 12:35:09;;;;;;;;;;;27.20;99.90;;;;;;4967585;28;20163;-70
2022/01/01 12:37:38;;;;;;;;;;;27.40;99.90;;;;;;4969373;28;20086;-70
2022/01/01 12:40:06;;;;;;;;;;;27.30;99.90;;;;;;4969724;28;20060;-74
2022/01/01 12:42:34;;;;;;;;;;;27.40;99.90;;;;;;4975863;28;20274;-72
2022/01/01 12:45:02;;;;;;;;;;;28.00;99.90;;;;;;4970954;28;20093;-73
2022/01/01 12:47:30;;;;;;;;;;;28.70;99.90;;;;;;4970454;28;20286;-72
2022/01/01 12:50:01;;;;;;;;;;;29.00;99.90;;;;;;4969428;28;21093;-72
2022/01/01 12:52:30;;;;;;;;;;;29.50;99.90;;;;;;4970831;28;20153;-72
2022/01/01 12:54:58;;;;;;;;;;;30.60;99.90;;;;;;4969910;28;21160;-72
2022/01/01 12:57:26;;;;;;;;;;;29.50;99.90;;;;;;4970599;28;20067;-72
2022/01/01 12:59:54;;;;;;;;;;;26.60;99.90;;;;;;4969796;28;20052;-72
2022/01/01 13:02:21;;;;;;;;;;;24.50;99.90;;;;;;4969510;28;21168;-72
2022/01/01 13:04:49;;;;;;;;;;;24.40;99.90;;;;;;4970664;28;20082;-72
2022/01/01 13:07:19;;;;;;;;;;;23.90;99.90;;;;;;4970071;28;20076;-72
2022/01/01 13:09:48;;;;;;;;;;;23.10;99.90;;;;;;4970260;28;20060;-72
2022/01/01 13:12:18;;;;;;;;;;;22.60;99.90;;;;;;4968913;28;20075;-72
2022/01/01 13:14:45;;;;;;;;;;;22.00;99.90;;;;;;4969314;28;20051;-72
2022/01/01 13:17:12;;;;;;;;;;;22.10;99.90;;;;;;4969757;28;20069;-72
2022/01/01 13:19:40;;;;;;;;;;;22.70;99.90;;;;;;4969025;28;20142;-72
2022/01/01 13:22:08;;;;;;;;;;;22.20;99.90;;;;;;4970079;28;20129;-72
2022/01/01 13:24:37;;;;;;;;;;;22.10;99.90;;;;;;4969279;28;20256;-72
2022/01/01 13:27:06;;;;;;;;;;;22.10;99.90;;;;;;4966780;28;20069;-72
2022/01/01 13:30:03;;;;;;;;;;;21.80;99.90;;;;;;5089208;27;20038;-72
2022/01/01 13:32:31;;;;;;;;;;;22.00;99.90;;;;;;5082275;27;20064;-79
2022/01/01 13:35:01;;;;;;;;;;;21.90;99.90;;;;;;5090988;27;21139;-71
2022/01/01 13:37:28;;;;;;;;;;;21.00;99.90;;;;;;5082775;27;21265;-72
2022/01/01 13:39:56;;;;;;;;;;;20.20;99.90;;;;;;5081617;28;21138;-72
2022/01/01 13:42:33;;;;;;;;;;;19.50;99.90;;;;;;5083459;27;20148;-72
2022/01/01 13:45:05;;;;;;;;;;;19.50;99.90;;;;;;5083084;28;20067;-75
2022/01/01 13:47:33;;;;;;;;;;;19.50;99.90;;;;;;5083110;27;20074;-70
2022/01/01 13:50:11;;;;;;;;;;;19.70;99.90;;;;;;5095545;27;20067;-77
2022/01/01 13:52:39;;;;;;;;;;;19.80;99.90;;;;;;5102550;27;20084;-71
2022/01/01 13:55:08;;;;;;;;;;;19.70;99.90;;;;;;5102644;27;20058;-71
2022/01/01 13:57:38;;;;;;;;;;;19.40;99.90;;;;;;5102583;27;20262;-70
2022/01/01 14:00:07;;;;;;;;;;;19.00;99.90;;;;;;5100811;27;20072;-71
2022/01/01 14:02:41;;;;;;;;;;;18.60;99.90;;;;;;5105974;27;20168;-71
2022/01/01 14:05:08;;;;;;;;;;;18.50;99.90;;;;;;5102685;27;21057;-71
2022/01/01 14:07:35;;;;;;;;;;;18.70;99.90;;;;;;5102574;27;21113;-71
2022/01/01 14:10:05;;;;;;;;;;;19.40;99.90;;;;;;5101960;27;20159;-71
2022/01/01 14:12:33;;;;;;;;;;;21.00;99.90;;;;;;5102758;27;20066;-70
2022/01/01 14:15:09;;;;;;;;;;;22.10;99.90;;;;;;5102841;27;21169;-71
2022/01/01 14:17:49;;;;;;;;;;;22.00;99.90;;;;;;5103076;27;21269;-70
2022/01/01 14:20:20;;;;;;;;;;;21.80;99.90;;;;;;5102651;27;20058;-71
2022/01/01 14:22:47;;;;;;;;;;;21.00;99.90;;;;;;5102748;27;20287;-69
2022/01/01 14:25:15;;;;;;;;;;;20.10;99.90;;;;;;5102685;27;20066;-71
2022/01/01 14:27:42;;;;;;;;;;;19.20;99.90;;;;;;5103412;27;20076;-70
2022/01/01 14:30:11;;;;;;;;;;;18.60;99.90;;;;;;5105723;27;20067;-71
2022/01/01 14:32:38;;;;;;;;;;;18.10;99.90;;;;;;5105779;27;20072;-71